Time;durP1;ratioP1;P1;durP2;ratioP2;P2;SDS_P1;SDS_P2;PMS_P1;PMS_P2;Temp;Humidity;BMP_temperature;BMP_pressure;BME280_temperature;BME280_humidity;BME280_pressure;Samples;Min_cycle;Max_cycle;Signal;HPM_P1;HPM_P2
2023/03/21 00:01:52;;;;;;;19.77;13.57;;;;;;;7.24;100.00;100737.84;6284913;28;20076;-86
2023/03/21 00:04:54;;;;;;;22.35;13.05;;;;;;;7.23;100.00;100733.63;6284348;28;20045;-87
2023/03/21 00:08:03;;;;;;;22.17;13.50;;;;;;;7.27;100.00;100737.63;6284216;28;20159;-87
2023/03/21 00:11:07;;;;;;;22.00;13.32;;;;;;;7.26;100.00;100737.75;6276654;28;20041;-87
2023/03/21 00:14:13;;;;;;;24.15;13.70;;;;;;;7.29;100.00;100727.25;6276078;28;20048;-87
2023/03/21 00:17:15;;;;;;;20.20;12.48;;;;;;;7.26;100.00;100730.03;6289189;28;20386;-87
2023/03/21 00:20:18;;;;;;;22.65;13.70;;;;;;;7.29;100.00;100729.84;6294117;28;20110;-87
2023/03/21 00:23:19;;;;;;;19.50;12.88;;;;;;;7.30;100.00;100728.91;6281848;28;20052;-87
2023/03/21 00:26:21;;;;;;;21.42;12.48;;;;;;;7.32;100.00;100725.31;6281486;28;20503;-87
2023/03/21 00:29:23;;;;;;;20.15;13.27;;;;;;;7.34;100.00;100728.63;6290883;28;20411;-87
2023/03/21 00:32:25;;;;;;;21.60;12.95;;;;;;;7.43;100.00;100722.09;6284828;28;20048;-87
2023/03/21 00:35:30;;;;;;;19.40;12.80;;;;;;;7.43;100.00;100718.66;6283133;28;20032;-87
2023/03/21 00:38:52;;;;;;;19.10;11.90;;;;;;;7.42;100.00;100720.41;6282071;28;20071;-87
2023/03/21 00:41:54;;;;;;;21.23;12.85;;;;;;;7.43;100.00;100713.50;6278131;28;20464;-87
2023/03/21 00:44:58;;;;;;;21.55;13.15;;;;;;;7.39;100.00;100714.66;6270217;28;20041;-87
2023/03/21 00:48:00;;;;;;;22.60;12.52;;;;;;;7.37;100.00;100707.00;6278709;28;20493;-88
2023/03/21 00:51:20;;;;;;;20.02;12.40;;;;;;;7.49;100.00;100705.41;6281604;28;20041;-88
2023/03/21 00:54:22;;;;;;;21.52;12.48;;;;;;;7.47;100.00;100697.78;6277074;28;20033;-88
2023/03/21 00:57:24;;;;;;;24.70;13.48;;;;;;;7.43;100.00;100698.06;6283227;28;20148;-88
2023/03/21 01:00:40;;;;;;;19.23;12.05;;;;;;;7.44;100.00;100700.53;6281565;28;20503;-87
2023/03/21 01:03:46;;;;;;;19.55;12.18;;;;;;;7.47;100.00;100690.03;6292479;28;20494;-87
2023/03/21 01:06:48;;;;;;;22.10;13.02;;;;;;;7.57;100.00;100697.19;6280877;28;20055;-88
2023/03/21 01:09:51;;;;;;;23.35;12.63;;;;;;;7.61;100.00;100690.94;6277798;28;20055;-88
2023/03/21 01:12:53;;;;;;;18.50;12.73;;;;;;;7.65;100.00;100684.66;6283170;28;20052;-88
2023/03/21 01:15:56;;;;;;;19.38;12.93;;;;;;;7.61;100.00;100684.03;6272953;28;20094;-88
2023/03/21 01:18:58;;;;;;;20.92;13.13;;;;;;;7.60;100.00;100684.94;6282817;28;20070;-87
2023/03/21 01:22:00;;;;;;;20.17;12.98;;;;;;;7.60;100.00;100679.78;6290845;28;20287;-88
2023/03/21 01:25:02;;;;;;;21.17;12.73;;;;;;;7.61;100.00;100678.06;6281775;28;20041;-88
2023/03/21 01:28:25;;;;;;;20.50;12.57;;;;;;;7.63;100.00;100683.94;6291648;28;20049;-88
2023/03/21 01:31:28;;;;;;;21.15;13.07;;;;;;;7.66;100.00;100686.31;6282334;28;20037;-87
2023/03/21 01:34:30;;;;;;;22.67;13.38;;;;;;;7.73;100.00;100677.28;6281553;28;20040;-88
2023/03/21 01:37:33;;;;;;;22.98;13.23;;;;;;;7.67;100.00;100683.63;6278855;28;20141;-87
2023/03/21 01:40:36;;;;;;;21.20;13.05;;;;;;;7.67;100.00;100685.38;6286181;28;20434;-87
2023/03/21 01:43:58;;;;;;;19.25;11.85;;;;;;;7.71;100.00;100676.53;6283164;28;20131;-88
2023/03/21 01:47:07;;;;;;;23.10;14.23;;;;;;;7.74;100.00;100676.34;6286432;28;20054;-88
2023/03/21 01:50:21;;;;;;;;;;;;;;;7.74;100.00;100676.34;6286881;28;20075;-88
2023/03/21 01:53:41;;;;;;;21.52;13.10;;;;;;;7.71;100.00;100669.63;6279067;28;19963;-88
2023/03/21 01:56:46;;;;;;;18.52;12.20;;;;;;;7.72;100.00;100665.28;6269487;28;20401;-88
2023/03/21 01:59:53;;;;;;;16.80;12.15;;;;;;;7.71;100.00;100666.22;6272551;28;20068;-88
2023/03/21 02:03:22;;;;;;;20.05;11.85;;;;;;;7.67;100.00;100662.19;6283496;28;20102;-88
2023/03/21 02:06:59;;;;;;;20.58;12.23;;;;;;;7.65;100.00;100666.59;6284533;28;20040;-88
2023/03/21 02:10:13;;;;;;;19.83;12.55;;;;;;;7.68;100.00;100658.72;6278644;28;20548;-88
2023/03/21 02:13:20;;;;;;;16.65;11.00;;;;;;;7.71;100.00;100654.16;6301264;28;20041;-88
2023/03/21 02:16:41;;;;;;;22.33;12.50;;;;;;;7.73;100.00;100656.66;6285240;28;20048;-89
2023/03/21 02:20:14;;;;;;;19.33;12.18;;;;;;;7.75;100.00;100650.47;6282016;28;20318;-88
2023/03/21 02:23:35;;;;;;;18.08;10.88;;;;;;;7.76;100.00;100641.00;6279365;28;20071;-88
2023/03/21 02:27:22;;;;;;;18.23;11.27;;;;;;;7.75;100.00;100635.00;6274877;28;20037;-88
2023/03/21 02:30:42;;;;;;;18.45;11.82;;;;;;;7.77;100.00;100638.28;6278301;28;20052;-88
2023/03/21 02:34:11;;;;;;;18.92;10.90;;;;;;;7.79;100.00;100640.78;6283187;28;20037;-88
2023/03/21 02:37:33;;;;;;;17.00;11.57;;;;;;;7.77;100.00;100633.13;6286424;28;20471;-88
2023/03/21 02:40:49;;;;;;;16.30;11.05;;;;;;;7.78;100.00;100631.41;6281895;28;20139;-87
2023/03/21 02:44:19;;;;;;;16.52;11.10;;;;;;;7.84;100.00;100631.00;6278263;28;20217;-88
2023/03/21 02:47:46;;;;;;;18.20;11.15;;;;;;;7.84;100.00;100622.44;6289988;28;20521;-88
2023/03/21 02:50:54;;;;;;;19.27;11.57;;;;;;;7.81;100.00;100626.06;6286287;28;20041;-88
2023/03/21 02:54:01;;;;;;;18.67;11.15;;;;;;;7.81;100.00;100632.97;6286819;28;20032;-88
2023/03/21 02:57:24;;;;;;;16.00;10.68;;;;;;;7.83;100.00;100628.53;6274393;28;20402;-87
2023/03/21 03:00:41;;;;;;;17.33;11.40;;;;;;;7.83;100.00;100631.13;6283957;28;20044;-88
2023/03/21 03:03:43;;;;;;;15.98;10.18;;;;;;;7.82;100.00;100625.09;6285201;28;20036;-88
2023/03/21 03:07:10;;;;;;;16.75;10.45;;;;;;;7.83;100.00;100621.63;6287770;28;20041;-88
2023/03/21 03:10:14;;;;;;;17.13;10.45;;;;;;;7.81;100.00;100623.47;6286307;28;20599;-87
2023/03/21 03:13:49;;;;;;;16.60;10.20;;;;;;;7.82;100.00;100616.56;6282918;28;20526;-87
2023/03/21 03:17:00;;;;;;;14.52;9.65;;;;;;;7.82;100.00;100612.22;6285894;28;20041;-88
2023/03/21 03:20:09;;;;;;;;;;;;;;;7.79;100.00;100616.78;6260659;28;20048;-87
2023/03/21 03:23:36;;;;;;;16.23;9.73;;;;;;;7.78;100.00;100618.53;6270981;28;20676;-88
2023/03/21 03:26:45;;;;;;;17.13;10.55;;;;;;;7.80;100.00;100615.84;6282991;28;20063;-88
2023/03/21 03:29:48;;;;;;;16.73;9.73;;;;;;;7.75;100.00;100609.25;6275731;28;20482;-88
2023/03/21 03:33:01;;;;;;;15.77;9.57;;;;;;;7.72;100.00;100616.34;6277816;28;20052;-88
2023/03/21 03:36:04;;;;;;;18.00;10.77;;;;;;;7.68;100.00;100613.16;6284275;28;20040;-88
2023/03/21 03:39:12;;;;;;;15.77;10.18;;;;;;;7.70;100.00;100621.59;6289361;28;20051;-88
2023/03/21 03:42:42;;;;;;;14.23;9.45;;;;;;;7.65;100.00;100615.09;6278879;28;20470;-88
2023/03/21 03:46:04;;;;;;;17.08;9.57;;;;;;;7.62;100.00;100620.44;6212386;28;20132;-88
2023/03/21 03:49:12;;;;;;;15.40;9.15;;;;;;;7.64;100.00;100613.44;6208381;28;20045;-88
2023/03/21 03:52:26;;;;;;;15.13;8.88;;;;;;;7.63;100.00;100614.38;6217394;28;20045;-88
2023/03/21 03:55:40;;;;;;;14.77;9.68;;;;;;;7.65;100.00;100621.09;6234010;28;20077;-88
2023/03/21 03:58:50;;;;;;;12.73;8.45;;;;;;;7.67;100.00;100618.41;6198657;28;20056;-88
2023/03/21 04:01:57;;;;;;;14.35;9.10;;;;;;;7.66;100.00;100616.75;6216952;28;20137;-88
2023/03/21 04:05:00;;;;;;;13.65;9.43;;;;;;;7.66;100.00;100620.16;6216904;28;20050;-88
2023/03/21 04:08:02;;;;;;;13.23;9.77;;;;;;;7.66;100.00;100619.31;6206859;28;20218;-88
2023/03/21 04:11:17;;;;;;;20.00;9.88;;;;;;;7.65;100.00;100618.50;6235921;28;20045;-88
2023/03/21 04:14:24;;;;;;;18.98;10.18;;;;;;;7.65;100.00;100615.94;6211512;28;20045;-88
2023/03/21 04:17:39;;;;;;;18.65;11.15;;;;;;;7.65;100.00;100613.34;6218907;28;20203;-88
2023/03/21 04:20:43;;;;;;;15.73;10.30;;;;;;;7.69;100.00;100609.63;6223844;28;20072;-88
2023/03/21 04:23:46;;;;;;;17.25;10.57;;;;;;;7.71;100.00;100614.69;6292458;28;20087;-88
2023/03/21 04:26:48;;;;;;;18.35;10.50;;;;;;;7.70;100.00;100615.59;6287009;28;20036;-88
2023/03/21 04:30:11;;;;;;;16.55;11.02;;;;;;;7.73;100.00;100605.94;6219479;28;20298;-88
2023/03/21 04:33:38;;;;;;;18.65;11.30;;;;;;;7.69;100.00;100607.06;6210527;28;20401;-88
2023/03/21 04:36:46;;;;;;;15.77;10.75;;;;;;;7.68;100.00;100608.00;6197009;28;20183;-87
2023/03/21 04:39:49;;;;;;;20.13;11.15;;;;;;;7.65;100.00;100605.63;6230679;28;20068;-88
2023/03/21 04:42:51;;;;;;;16.52;10.63;;;;;;;7.64;100.00;100603.16;6214567;28;20061;-87
2023/03/21 04:45:54;;;;;;;15.50;9.95;;;;;;;7.64;100.00;100600.56;6215945;28;20052;-88
2023/03/21 04:48:56;;;;;;;18.05;10.23;;;;;;;7.61;100.00;100599.03;6238783;28;20411;-88
2023/03/21 04:51:58;;;;;;;15.85;9.82;;;;;;;7.60;100.00;100599.94;6222628;28;20171;-87
2023/03/21 04:55:01;;;;;;;16.15;10.43;;;;;;;7.61;100.00;100598.19;6194719;28;20133;-88
2023/03/21 04:58:04;;;;;;;19.08;10.45;;;;;;;7.61;100.00;100605.94;6202938;28;20072;-87
2023/03/21 05:01:06;;;;;;;17.75;11.13;;;;;;;7.62;100.00;100600.66;6231114;28;20292;-87
2023/03/21 05:04:09;;;;;;;17.23;10.00;;;;;;;7.63;100.00;100606.66;6198936;28;20502;-88
2023/03/21 05:07:12;;;;;;;15.65;9.60;;;;;;;7.65;100.00;100595.31;6259397;28;20456;-88
2023/03/21 05:10:14;;;;;;;16.33;10.23;;;;;;;7.67;100.00;100597.78;6286045;28;20044;-87
2023/03/21 05:13:16;;;;;;;16.35;10.35;;;;;;;7.67;100.00;100595.19;6287336;28;20052;-88
2023/03/21 05:16:18;;;;;;;15.80;9.85;;;;;;;7.66;100.00;100596.16;6279862;28;20040;-87
2023/03/21 05:19:34;;;;;;;15.50;10.60;;;;;;;7.70;100.00;100589.84;6285704;28;20523;-87
2023/03/21 05:22:39;;;;;;;18.00;11.13;;;;;;;7.72;100.00;100585.41;6285878;28;20540;-87
2023/03/21 05:25:45;;;;;;;17.25;11.07;;;;;;;7.70;100.00;100590.69;6291961;28;20041;-88
2023/03/21 05:28:51;;;;;;;17.10;10.93;;;;;;;7.75;100.00;100596.38;6290609;28;20048;-88
2023/03/21 05:31:53;;;;;;;19.17;11.88;;;;;;;7.76;100.00;100597.19;6290994;28;20072;-88
2023/03/21 05:34:55;;;;;;;17.65;11.25;;;;;;;7.77;100.00;100591.91;6290082;28;20772;-88
2023/03/21 05:37:57;;;;;;;19.52;11.20;;;;;;;7.85;100.00;100586.28;6287229;28;20055;-88
2023/03/21 05:41:02;;;;;;;18.23;11.10;;;;;;;7.89;100.00;100589.47;6288471;28;20214;-88
2023/03/21 05:44:05;;;;;;;20.50;11.90;;;;;;;7.88;100.00;100587.81;6272169;28;21131;-88
2023/03/21 05:47:09;;;;;;;19.92;11.70;;;;;;;7.94;100.00;100584.81;6287515;28;20048;-88
2023/03/21 05:50:16;;;;;;;18.42;12.10;;;;;;;7.98;100.00;100583.69;6288668;28;20124;-88
2023/03/21 05:53:27;;;;;;;;;;;;;;;8.00;100.00;100587.00;6286862;28;20422;-87
2023/03/21 05:56:29;;;;;;;24.48;12.52;;;;;;;8.06;100.00;100593.50;6288061;28;19924;-88
2023/03/21 05:59:36;;;;;;;25.80;12.85;;;;;;;8.08;100.00;100583.91;6271040;28;20443;-88
2023/03/21 06:02:40;;;;;;;20.92;12.98;;;;;;;8.16;100.00;100591.94;6270351;28;20048;-88
2023/03/21 06:05:58;;;;;;;19.88;12.65;;;;;;;8.17;100.00;100585.84;6288907;28;20045;-88
2023/03/21 06:09:07;;;;;;;24.05;13.30;;;;;;;8.18;100.00;100585.75;6280146;28;20055;-87
2023/03/21 06:12:11;;;;;;;22.98;13.40;;;;;;;8.17;100.00;100584.13;6287382;28;20040;-88
2023/03/21 06:15:18;;;;;;;21.13;14.15;;;;;;;8.17;100.00;100583.25;6289174;28;20379;-88
2023/03/21 06:18:37;;;;;;;26.55;14.63;;;;;;;8.19;100.00;100578.84;6287174;28;20422;-87
2023/03/21 06:21:56;;;;;;;25.27;13.75;;;;;;;8.24;100.00;100589.66;6287533;28;20106;-88
2023/03/21 06:24:59;;;;;;;24.15;14.52;;;;;;;8.28;100.00;100585.94;6288044;28;20410;-87
2023/03/21 06:28:02;;;;;;;27.63;13.55;;;;;;;8.26;100.00;100585.22;6296465;28;20040;-88
2023/03/21 06:31:06;;;;;;;22.17;13.57;;;;;;;8.33;100.00;100580.47;6288267;28;20041;-87
2023/03/21 06:34:10;;;;;;;27.23;14.65;;;;;;;8.32;100.00;100579.66;6283082;28;20332;-87
2023/03/21 06:37:12;;;;;;;25.25;14.93;;;;;;;8.35;100.00;100579.44;6270483;28;20498;-87
2023/03/21 06:40:15;;;;;;;22.85;13.38;;;;;;;8.39;100.00;100582.63;6290711;28;20051;-87
2023/03/21 06:43:17;;;;;;;27.70;13.60;;;;;;;8.48;100.00;100587.19;6287063;28;20109;-87
2023/03/21 06:46:20;;;;;;;26.27;13.70;;;;;;;8.50;100.00;100581.94;6286865;28;20454;-87
2023/03/21 06:49:22;;;;;;;21.67;13.07;;;;;;;8.55;100.00;100575.50;6289803;28;20040;-87
2023/03/21 06:52:24;;;;;;;25.23;12.93;;;;;;;8.65;100.00;100582.63;6285379;28;20039;-87
2023/03/21 06:55:28;;;;;;;22.00;12.80;;;;;;;8.73;100.00;100581.13;6287186;28;20429;-87
2023/03/21 06:58:35;;;;;;;22.35;12.18;;;;;;;8.79;100.00;100585.88;6286885;28;20044;-87
2023/03/21 07:01:38;;;;;;;27.13;12.68;;;;;;;8.87;100.00;100581.91;6286071;28;20052;-87
2023/03/21 07:04:41;;;;;;;21.50;12.48;;;;;;;8.92;100.00;100580.66;6282368;28;20048;-87
2023/03/21 07:07:49;;;;;;;21.88;12.13;;;;;;;8.98;100.00;100580.22;6283634;28;20074;-87
2023/03/21 07:10:56;;;;;;;23.80;12.52;;;;;;;9.08;100.00;100585.56;6286532;28;20534;-87
2023/03/21 07:13:58;;;;;;;26.10;13.40;;;;;;;9.05;100.00;100576.28;6283880;28;20595;-87
2023/03/21 07:17:01;;;;;;;21.50;11.73;;;;;;;9.08;100.00;100572.66;6286294;28;20459;-87
2023/03/21 07:20:11;;;;;;;22.88;12.55;;;;;;;9.17;100.00;100573.75;6287059;28;20041;-87
2023/03/21 07:23:13;;;;;;;23.80;13.30;;;;;;;9.18;100.00;100576.19;6272465;28;20071;-87
2023/03/21 07:26:17;;;;;;;21.80;12.52;;;;;;;9.28;100.00;100574.59;6303864;28;20043;-87
2023/03/21 07:29:22;;;;;;;24.58;12.23;;;;;;;9.40;100.00;100566.91;6286027;28;20055;-87
2023/03/21 07:32:23;;;;;;;24.52;12.23;;;;;;;9.52;100.00;100557.44;6290692;28;20426;-87
2023/03/21 07:35:25;;;;;;;23.08;11.57;;;;;;;9.63;100.00;100554.84;6290286;28;20051;-87
2023/03/21 07:38:29;;;;;;;20.23;11.77;;;;;;;9.78;100.00;100553.72;6287718;28;20044;-87
2023/03/21 07:41:32;;;;;;;23.00;12.27;;;;;;;9.95;100.00;100556.78;6287480;28;20044;-87
2023/03/21 07:44:45;;;;;;;22.60;12.02;;;;;;;10.14;100.00;100549.28;6271555;28;20049;-87
2023/03/21 07:47:48;;;;;;;26.23;11.48;;;;;;;10.32;100.00;100549.66;6288816;28;20044;-87
2023/03/21 07:50:51;;;;;;;21.95;11.40;;;;;;;10.45;100.00;100552.91;6287873;28;20143;-87
2023/03/21 07:53:53;;;;;;;19.50;11.00;;;;;;;10.60;100.00;100547.50;6285163;28;20143;-88
2023/03/21 07:56:56;;;;;;;26.40;12.23;;;;;;;10.70;100.00;100548.41;6284795;28;20033;-88
2023/03/21 07:59:57;;;;;;;20.48;11.50;;;;;;;10.73;100.00;100553.34;6285347;28;20040;-88
2023/03/21 08:03:00;;;;;;;21.38;12.52;;;;;;;10.66;100.00;100549.63;6286578;28;20037;-88
2023/03/21 08:06:02;;;;;;;19.40;10.70;;;;;;;10.53;100.00;100555.75;6286014;28;20425;-87
2023/03/21 08:09:06;;;;;;;18.40;10.70;;;;;;;10.46;100.00;100552.00;6286299;28;20036;-88
2023/03/21 08:12:09;;;;;;;36.45;12.75;;;;;;;10.41;100.00;100545.50;6289645;28;20067;-87
2023/03/21 08:15:12;;;;;;;24.23;11.95;;;;;;;10.50;100.00;100545.63;6284526;28;20051;-88
2023/03/21 08:18:14;;;;;;;19.85;10.57;;;;;;;10.68;100.00;100548.56;6285488;28;20083;-88
2023/03/21 08:21:16;;;;;;;21.98;11.32;;;;;;;10.78;100.00;100553.78;6284883;28;20048;-88
2023/03/21 08:24:18;;;;;;;20.98;10.70;;;;;;;10.82;100.00;100552.63;6290281;28;20048;-87
2023/03/21 08:27:20;;;;;;;19.98;10.48;;;;;;;10.89;100.00;100555.56;6287980;28;20056;-87
2023/03/21 08:30:25;;;;;;;22.27;10.93;;;;;;;10.88;100.00;100554.72;6274886;28;20047;-88
2023/03/21 08:33:29;;;;;;;19.27;10.77;;;;;;;10.81;100.00;100560.50;6285937;28;20555;-87
2023/03/21 08:36:31;;;;;;;22.20;10.63;;;;;;;10.70;100.00;100566.53;6286272;28;20490;-87
2023/03/21 08:39:32;;;;;;;21.20;10.93;;;;;;;10.65;100.00;100555.72;6282577;28;20036;-87
2023/03/21 08:42:35;;;;;;;21.92;10.88;;;;;;;10.63;100.00;100549.84;6282440;28;20044;-87
2023/03/21 08:45:36;;;;;;;23.10;11.55;;;;;;;10.74;100.00;100552.41;6284925;28;20162;-87
2023/03/21 08:48:39;;;;;;;18.58;10.60;;;;;;;10.81;100.00;100550.13;6286655;28;20044;-87
2023/03/21 08:51:44;;;;;;;21.35;10.70;;;;;;;10.93;100.00;100547.41;6287452;28;20052;-87
2023/03/21 08:54:47;;;;;;;22.25;11.30;;;;;;;11.00;100.00;100552.91;6284000;28;20048;-87
2023/03/21 08:57:50;;;;;;;18.63;9.77;;;;;;;11.13;100.00;100547.56;6289462;28;20401;-87
2023/03/21 09:00:52;;;;;;;22.90;10.95;;;;;;;11.24;100.00;100551.88;6280981;28;20206;-87
2023/03/21 09:03:53;;;;;;;16.40;10.13;;;;;;;11.42;100.00;100558.16;6289626;28;20139;-87
2023/03/21 09:06:56;;;;;;;22.55;10.75;;;;;;;11.55;100.00;100553.63;6293071;28;20044;-87
2023/03/21 09:09:59;;;;;;;22.77;11.20;;;;;;;11.68;100.00;100548.22;6299479;28;20401;-87
2023/03/21 09:13:22;;;;;;;19.92;10.75;;;;;;;11.97;100.00;100548.38;6302408;28;20033;-87
2023/03/21 09:16:23;;;;;;;23.05;9.60;;;;;;;12.33;100.00;100554.00;6291220;28;20501;-87
2023/03/21 09:19:26;;;;;;;18.17;10.25;;;;;;;12.65;100.00;100548.63;6293292;28;20064;-87
2023/03/21 09:22:28;;;;;;;19.25;10.73;;;;;;;12.82;100.00;100541.97;6293542;28;20361;-87
2023/03/21 09:25:32;;;;;;;16.02;9.13;;;;;;;13.00;100.00;100539.50;6292992;28;20485;-87
2023/03/21 09:28:36;;;;;;;28.42;10.77;;;;;;;13.12;100.00;100548.00;6293754;28;20129;-87
2023/03/21 09:31:42;;;;;;;18.85;9.65;;;;;;;13.22;100.00;100538.41;6299374;28;20406;-87
2023/03/21 09:34:44;;;;;;;18.20;9.43;;;;;;;13.21;100.00;100548.94;6292684;28;20048;-87
2023/03/21 09:37:48;;;;;;;17.40;9.27;;;;;;;13.38;100.00;100540.47;6293995;28;20048;-87
2023/03/21 09:41:03;;;;;;;21.65;9.43;;;;;;;13.43;100.00;100535.66;6291262;28;20036;-87
2023/03/21 09:44:39;;;;;;;20.50;9.68;;;;;;;13.45;100.00;100535.53;6292939;28;20517;-87
2023/03/21 09:47:52;;;;;;;16.73;8.95;;;;;;;13.18;100.00;100544.00;6302371;28;20079;-87
2023/03/21 09:50:56;;;;;;;19.38;9.38;;;;;;;12.69;100.00;100538.78;6291803;28;20036;-87
2023/03/21 09:54:05;;;;;;;17.55;8.98;;;;;;;12.37;100.00;100542.41;6293274;28;20045;-87
2023/03/21 09:57:20;;;;;;;19.42;9.55;;;;;;;12.04;100.00;100538.31;6292953;28;20044;-87
2023/03/21 10:00:42;;;;;;;17.52;9.77;;;;;;;11.85;100.00;100539.03;6292352;28;20056;-87
2023/03/21 10:03:46;;;;;;;17.27;9.52;;;;;;;11.67;100.00;100538.78;6283518;28;20762;-87
2023/03/21 10:07:02;;;;;;;20.02;9.57;;;;;;;11.45;100.00;100544.13;6293402;28;20808;-87
2023/03/21 10:10:06;;;;;;;17.08;9.70;;;;;;;11.34;100.00;100553.59;6287415;28;20494;-87
2023/03/21 10:13:15;;;;;;;20.42;10.38;;;;;;;11.33;100.00;100541.59;6289216;28;20517;-86
2023/03/21 10:16:31;;;;;;;17.80;11.50;;;;;;;11.21;100.00;100543.41;6289601;28;20517;-87
2023/03/21 10:19:33;;;;;;;18.27;10.45;;;;;;;11.04;100.00;100536.19;6297328;28;20522;-87
2023/03/21 10:22:35;;;;;;;17.98;9.52;;;;;;;10.87;100.00;100529.75;6288751;28;20517;-87
2023/03/21 10:25:45;;;;;;;16.85;8.43;;;;;;;10.77;100.00;100528.84;6286984;28;20063;-87
2023/03/21 10:28:48;;;;;;;17.17;8.70;;;;;;;10.77;100.00;100527.09;6282712;28;20049;-87
2023/03/21 10:31:54;;;;;;;16.08;7.90;;;;;;;10.66;100.00;100534.09;6288030;28;20764;-86
2023/03/21 10:34:57;;;;;;;15.13;8.73;;;;;;;10.55;100.00;100527.16;6287253;28;20491;-86
2023/03/21 10:38:00;;;;;;;18.63;9.23;;;;;;;10.47;100.00;100534.69;6283301;28;20033;-87
2023/03/21 10:41:02;;;;;;;16.58;9.10;;;;;;;10.47;100.00;100530.34;6287063;28;20107;-87
2023/03/21 10:44:27;;;;;;;15.25;8.55;;;;;;;10.43;100.00;100531.50;6288479;28;20049;-89
2023/03/21 10:47:32;;;;;;;14.38;7.47;;;;;;;10.39;100.00;100531.91;6296346;28;20040;-87
2023/03/21 10:50:34;;;;;;;17.35;9.38;;;;;;;10.37;100.00;100532.00;6286848;28;20154;-87
2023/03/21 10:53:52;;;;;;;18.13;8.52;;;;;;;10.37;100.00;100531.19;6291351;28;20044;-86
2023/03/21 10:56:56;;;;;;;16.08;7.82;;;;;;;10.38;100.00;100538.00;6281810;28;20040;-85
2023/03/21 11:00:06;;;;;;;15.00;7.88;;;;;;;10.51;100.00;100536.13;6280183;28;20052;-85
2023/03/21 11:03:30;;;;;;;16.10;8.23;;;;;;;10.69;100.00;100533.84;6287591;28;20410;-85
2023/03/21 11:06:36;;;;;;;15.75;8.15;;;;;;;10.81;100.00;100532.84;6288270;28;20391;-86
2023/03/21 11:09:47;;;;;;;18.05;8.80;;;;;;;10.92;100.00;100522.44;6287081;28;20098;-88
2023/03/21 11:12:55;;;;;;;16.83;9.32;;;;;;;11.07;100.00;100533.34;6289056;28;20134;-87
2023/03/21 11:16:08;;;;;;;16.77;8.77;;;;;;;11.12;100.00;100526.00;6287926;28;20114;-87
2023/03/21 11:19:15;;;;;;;18.40;8.85;;;;;;;11.16;100.00;100522.25;6287622;28;20147;-87
2023/03/21 11:22:23;;;;;;;18.70;8.68;;;;;;;11.28;100.00;100524.75;6286243;28;20041;-86
2023/03/21 11:25:36;;;;;;;19.35;9.88;;;;;;;11.14;100.00;100528.50;6285556;28;20036;-85
2023/03/21 11:28:40;;;;;;;18.27;9.18;;;;;;;11.04;100.00;100523.22;6288501;28;20049;-84
2023/03/21 11:31:43;;;;;;;16.90;9.57;;;;;;;10.94;100.00;100520.56;6287051;28;20037;-84
2023/03/21 11:35:04;;;;;;;18.52;9.45;;;;;;;10.88;100.00;100526.25;6285838;28;20589;-85
2023/03/21 11:38:25;;;;;;;16.75;9.48;;;;;;;10.80;100.00;100525.19;6285574;28;20082;-84
2023/03/21 11:41:33;;;;;;;16.52;9.65;;;;;;;10.64;100.00;100512.66;6287147;28;20445;-83
2023/03/21 11:44:43;;;;;;;18.70;10.15;;;;;;;10.60;100.00;100512.06;6287372;28;20048;-83
2023/03/21 11:47:46;;;;;;;19.20;9.32;;;;;;;10.65;100.00;100516.88;6287022;28;20041;-84
2023/03/21 11:50:55;;;;;;;19.27;9.45;;;;;;;10.69;100.00;100513.94;6286512;28;20067;-84
2023/03/21 11:54:19;;;;;;;17.27;10.10;;;;;;;10.74;100.00;100506.63;6294270;28;20072;-84
2023/03/21 11:57:30;;;;;;;20.25;10.07;;;;;;;10.76;100.00;100506.50;6240174;28;20589;-84
2023/03/21 12:00:48;;;;;;;20.30;10.50;;;;;;;10.78;100.00;100507.19;6233947;28;20061;-83
2023/03/21 12:04:26;;;;;;;21.10;10.32;;;;;;;10.60;100.00;100504.31;6227767;28;20485;-84
2023/03/21 12:08:00;;;;;;;17.38;10.10;;;;;;;10.69;100.00;100498.41;6135855;28;20495;-84
2023/03/21 12:11:54;;;;;;;21.23;10.20;;;;;;;10.76;100.00;100498.75;6081448;29;20083;-85
2023/03/21 12:15:20;;;;;;;17.73;9.70;;;;;;;10.82;100.00;100498.25;6042232;29;20060;-84
2023/03/21 12:18:45;;;;;;;17.42;9.57;;;;;;;10.81;100.00;100494.03;6038418;29;20586;-85
2023/03/21 12:22:00;;;;;;;22.55;10.45;;;;;;;10.75;100.00;100492.72;6038040;29;20057;-85
2023/03/21 12:25:26;;;;;;;20.70;10.77;;;;;;;10.67;100.00;100496.88;6040683;29;20053;-84
2023/03/21 12:28:53;;;;;;;18.17;10.30;;;;;;;10.59;100.00;100483.75;6033245;29;20068;-85
2023/03/21 12:32:17;;;;;;;19.35;9.85;;;;;;;10.51;100.00;100476.59;6040421;29;20069;-85
2023/03/21 12:35:24;;;;;;;18.90;10.10;;;;;;;10.56;100.00;100484.81;6081179;29;20579;-86
2023/03/21 12:38:49;;;;;;;18.85;9.48;;;;;;;10.61;100.00;100474.06;6092575;29;20056;-85
2023/03/21 12:42:15;;;;;;;21.08;10.63;;;;;;;10.71;100.00;100478.41;6089406;29;20056;-85
2023/03/21 12:45:17;;;;;;;22.52;11.40;;;;;;;10.90;100.00;100475.13;6139536;28;20062;-85
2023/03/21 12:48:39;;;;;;;20.60;12.52;;;;;;;10.93;100.00;100469.72;6196165;28;20061;-86
2023/03/21 12:51:54;;;;;;;20.08;11.13;;;;;;;10.90;100.00;100462.19;6283775;28;20047;-86
2023/03/21 12:54:56;;;;;;;17.83;11.15;;;;;;;10.86;100.00;100458.22;6284571;28;20493;-87
2023/03/21 12:58:09;;;;;;;20.45;10.50;;;;;;;10.86;100.00;100455.63;6282746;28;20040;-87
2023/03/21 13:01:14;;;;;;;21.23;10.50;;;;;;;10.78;100.00;100455.41;6279669;28;20029;-88
2023/03/21 13:05:04;;;;;;;18.10;9.85;;;;;;;10.72;100.00;100455.91;6282745;28;20055;-89
2023/03/21 13:08:14;;;;;;;24.77;10.82;;;;;;;10.62;100.00;100455.84;6236899;28;20100;-89
2023/03/21 13:11:20;;;;;;;16.48;9.95;;;;;;;10.51;100.00;100458.47;6250239;28;20434;-89
2023/03/21 13:14:32;;;;;;;17.30;10.30;;;;;;;10.40;100.00;100450.72;6230877;28;20038;-88
2023/03/21 13:17:44;;;;;;;20.13;10.73;;;;;;;10.41;100.00;100453.22;6226614;28;20054;-88
2023/03/21 13:20:54;;;;;;;23.73;10.35;;;;;;;10.41;100.00;100452.34;6218644;28;20045;-88
2023/03/21 13:24:02;;;;;;;20.20;9.98;;;;;;;10.40;100.00;100448.97;6249635;28;20653;-84
2023/03/21 13:27:23;;;;;;;16.95;7.75;;;;;;;10.40;100.00;100453.31;6230787;28;20060;-83
2023/03/21 13:30:28;;;;;;;16.95;8.18;;;;;;;10.39;100.00;100447.31;6231271;28;20421;-83
2023/03/21 13:33:33;;;;;;;20.27;9.00;;;;;;;10.34;100.00;100436.53;6230481;28;20064;-83
2023/03/21 13:36:37;;;;;;;14.63;7.82;;;;;;;10.25;100.00;100444.97;6205174;28;20212;-83
2023/03/21 13:39:43;;;;;;;16.38;8.27;;;;;;;10.26;100.00;100441.44;6230846;28;20100;-83
2023/03/21 13:42:51;;;;;;;13.20;7.60;;;;;;;10.22;100.00;100440.84;6233790;28;20102;-83
2023/03/21 13:45:53;;;;;;;13.32;7.15;;;;;;;10.19;100.00;100448.06;6280283;28;20512;-83
2023/03/21 13:48:59;;;;;;;15.05;7.40;;;;;;;10.11;100.00;100443.44;6287780;28;20044;-83
2023/03/21 13:52:27;;;;;;;18.25;8.45;;;;;;;10.12;100.00;100438.16;6288501;28;20048;-83
2023/03/21 13:55:40;;;;;;;11.95;7.88;;;;;;;10.13;100.00;100433.81;6260256;28;20087;-84
2023/03/21 13:58:47;;;;;;;17.55;8.07;;;;;;;10.21;100.00;100438.38;6268807;28;20498;-84
2023/03/21 14:02:19;;;;;;;13.27;8.10;;;;;;;10.24;100.00;100428.63;6277922;28;20470;-85
2023/03/21 14:05:23;;;;;;;16.38;8.13;;;;;;;10.25;100.00;100432.84;6274254;28;20057;-85
2023/03/21 14:08:27;;;;;;;14.52;8.57;;;;;;;10.25;100.00;100432.03;6266986;28;20123;-84
2023/03/21 14:11:38;;;;;;;14.63;7.53;;;;;;;10.22;100.00;100430.50;6271758;28;20059;-84
2023/03/21 14:15:21;;;;;;;15.02;7.57;;;;;;;10.25;100.00;100417.31;6279916;28;20072;-84
2023/03/21 14:18:25;;;;;;;13.48;7.28;;;;;;;10.32;100.00;100418.53;6270917;28;20064;-84
2023/03/21 14:21:52;;;;;;;15.13;7.32;;;;;;;10.34;100.00;100421.00;6270774;28;20056;-84